createdAt,value
2023-03-09T00:03:37.053Z,98300.44
2023-03-09T00:08:29.598Z,98248.28
2023-03-09T00:13:22.433Z,98358.78
2023-03-09T00:18:14.207Z,98410.44
2023-03-09T00:23:09.820Z,98396.13
2023-03-09T00:28:01.470Z,98288.72
2023-03-09T00:32:54.478Z,98252.03
2023-03-09T00:37:48.250Z,98360.56
2023-03-09T00:42:42.839Z,97948.25
2023-03-09T00:47:34.787Z,98222.88
2023-03-09T00:52:26.446Z,98279.56
2023-03-09T00:57:18.726Z,98134.94
2023-03-09T01:02:10.433Z,98383.53
2023-03-09T01:07:03.267Z,98332.53
2023-03-09T01:11:55.002Z,98393.25
2023-03-09T01:16:47.253Z,98162.19
2023-03-09T01:21:40.048Z,98210.94
2023-03-09T01:26:32.263Z,98393.06
2023-03-09T01:31:24.142Z,98216.88
2023-03-09T01:36:19.439Z,98390.56
2023-03-09T01:41:15.921Z,98281.06
2023-03-09T01:46:27.157Z,98413.88
2023-03-09T01:51:20.526Z,98409.72
2023-03-09T01:56:14.277Z,98405.72
2023-03-09T02:01:06.529Z,98421.69
2023-03-09T02:06:05.065Z,98436.69
2023-03-09T02:10:58.265Z,98231.28
2023-03-09T02:15:52.261Z,98375.28
2023-03-09T02:20:56.253Z,98325.22
2023-03-09T02:26:17.454Z,98508.47
2023-03-09T02:31:11.693Z,98544.47
2023-03-09T02:36:05.899Z,98450.75
2023-03-09T02:41:07.265Z,98386.56
2023-03-09T02:45:59.879Z,98507.91
2023-03-09T02:50:52.704Z,98486.19
2023-03-09T02:55:44.466Z,98557.16
2023-03-09T03:00:38.237Z,98490.09
2023-03-09T03:05:30.173Z,98544.13
2023-03-09T03:10:28.858Z,98414.13
2023-03-09T03:15:20.614Z,98491.72
2023-03-09T03:20:15.902Z,98616.16
2023-03-09T03:25:12.752Z,98566.06
2023-03-09T03:30:10.449Z,98640.94
2023-03-09T03:35:03.511Z,98472.03
2023-03-09T03:39:57.826Z,98466.84
2023-03-09T03:44:49.955Z,98490.13
2023-03-09T03:49:44.548Z,98571.78
2023-03-09T03:54:36.674Z,98551.97
2023-03-09T03:59:30.463Z,98541.59
2023-03-09T04:04:22.558Z,98649.41
2023-03-09T04:09:22.278Z,98672.63
2023-03-09T04:14:14.542Z,98635.44
2023-03-09T04:19:07.932Z,98627.28
2023-03-09T04:24:01.936Z,98723.31
2023-03-09T04:28:54.018Z,98746.81
2023-03-09T04:33:46.566Z,98614.78
2023-03-09T04:38:43.133Z,98347.88
2023-03-09T04:43:34.874Z,98607.13
2023-03-09T04:48:28.336Z,98632.72
2023-03-09T04:53:20.970Z,98592.69
2023-03-09T04:58:13.257Z,98714.19
2023-03-09T05:03:05.817Z,98764.25
2023-03-09T05:07:59.086Z,98775.34
2023-03-09T05:12:51.059Z,98608.19
2023-03-09T05:17:47.294Z,98748.75
2023-03-09T05:22:40.137Z,98784.84
2023-03-09T05:27:34.325Z,98699.53
2023-03-09T05:32:26.654Z,98798.75
2023-03-09T05:37:19.935Z,98800.91
2023-03-09T05:42:14.500Z,98835.72
2023-03-09T05:47:08.094Z,98755.81
2023-03-09T05:52:00.384Z,98819.72
2023-03-09T05:56:57.485Z,98663.00
2023-03-09T06:01:50.104Z,98708.50
2023-03-09T06:06:46.993Z,98833.22
2023-03-09T06:11:39.567Z,98647.81
2023-03-09T06:16:32.881Z,98788.47
2023-03-09T06:21:25.158Z,98849.78
2023-03-09T06:26:17.058Z,98760.41
2023-03-09T06:31:17.516Z,98885.22
2023-03-09T06:36:15.677Z,98748.47
2023-03-09T06:41:10.447Z,98893.13
2023-03-09T06:46:02.482Z,98828.19
2023-03-09T06:50:54.645Z,98855.03
2023-03-09T06:55:46.520Z,98731.22
2023-03-09T07:00:42.347Z,98878.31
2023-03-09T07:05:35.644Z,98873.97
2023-03-09T07:10:27.412Z,98929.19
2023-03-09T07:15:19.296Z,98955.09
2023-03-09T07:20:13.382Z,98825.22
2023-03-09T07:25:05.880Z,98863.91
2023-03-09T07:29:59.020Z,98774.22
2023-03-09T07:34:50.959Z,98970.53
2023-03-09T07:39:43.490Z,98979.47
2023-03-09T07:44:35.189Z,98879.75
2023-03-09T07:49:27.663Z,98817.31
2023-03-09T07:54:19.453Z,98499.88
2023-03-09T07:59:17.254Z,99007.78
2023-03-09T08:04:08.909Z,98728.00
2023-03-09T08:09:01.319Z,99048.22
2023-03-09T08:13:53.243Z,98882.00
2023-03-09T08:18:46.311Z,98910.19
2023-03-09T08:23:41.156Z,98900.78
2023-03-09T08:28:33.326Z,99051.50
2023-03-09T08:33:26.135Z,98533.66
2023-03-09T08:38:17.968Z,99075.69
2023-03-09T08:43:09.619Z,98956.56
2023-03-09T08:48:02.301Z,99002.41
2023-03-09T08:52:54.000Z,99101.19
2023-03-09T08:57:47.327Z,99044.66
2023-03-09T09:02:39.572Z,99026.59
2023-03-09T09:07:32.820Z,98874.97
2023-03-09T09:12:26.793Z,99008.78
2023-03-09T09:17:23.755Z,99136.34
2023-03-09T09:22:15.510Z,99149.47
2023-03-09T09:27:08.364Z,99155.97
2023-03-09T09:32:01.054Z,98938.91
2023-03-09T09:36:54.284Z,99104.34
2023-03-09T09:41:50.116Z,99041.59
2023-03-09T09:46:41.974Z,99021.06
2023-03-09T09:51:55.268Z,99183.91
2023-03-09T09:57:03.331Z,99136.56
2023-03-09T10:02:04.876Z,99157.19
2023-03-09T10:07:01.355Z,99124.88
2023-03-09T10:12:02.376Z,99200.81
2023-03-09T10:17:18.491Z,99208.41
2023-03-09T10:22:13.494Z,99208.72
2023-03-09T10:27:28.723Z,99009.13
2023-03-09T10:32:31.993Z,99234.09
2023-03-09T10:37:26.300Z,99234.88
2023-03-09T10:42:24.384Z,99108.88
2023-03-09T10:47:15.975Z,99127.44
2023-03-09T10:52:19.042Z,99239.06
2023-03-09T10:57:25.892Z,99196.75
2023-03-09T11:02:35.089Z,99242.91
2023-03-09T11:07:30.561Z,99192.44
2023-03-09T11:12:30.452Z,99250.63
2023-03-09T11:17:27.776Z,99102.78
2023-03-09T11:22:19.900Z,99240.41
2023-03-09T11:27:32.261Z,99244.19
2023-03-09T11:32:24.878Z,98854.56
2023-03-09T11:37:31.711Z,99035.81
2023-03-09T11:42:41.226Z,99193.19
2023-03-09T11:47:43.944Z,99237.19
2023-03-09T11:52:50.379Z,99083.28
2023-03-09T11:57:47.801Z,99219.44
2023-03-09T12:02:57.961Z,99241.00
2023-03-09T12:08:16.911Z,99234.16
2023-03-09T12:13:39.298Z,99210.97
2023-03-09T12:18:35.268Z,99225.16
2023-03-09T12:23:37.400Z,99226.88
2023-03-09T12:28:29.122Z,99089.91
2023-03-09T12:33:43.394Z,99209.41
2023-03-09T12:38:35.136Z,99169.19
2023-03-09T12:43:44.482Z,99016.34
2023-03-09T12:48:37.882Z,99025.91
2023-03-09T12:53:32.892Z,99211.47
2023-03-09T12:58:25.947Z,99213.56
2023-03-09T13:03:23.406Z,99221.28
2023-03-09T13:08:30.451Z,99196.66
2023-03-09T13:13:55.559Z,98809.34
2023-03-09T13:18:47.253Z,99154.22
2023-03-09T13:23:40.696Z,99141.25
2023-03-09T13:28:41.680Z,99165.38
2023-03-09T13:33:37.219Z,99173.75
2023-03-09T13:38:32.604Z,99146.19
2023-03-09T13:43:37.056Z,99158.38
2023-03-09T13:48:32.169Z,99037.88
2023-03-09T13:53:28.302Z,99170.38
2023-03-09T13:58:26.062Z,99162.59
2023-03-09T14:03:18.436Z,99155.13
2023-03-09T14:08:20.280Z,99002.00
2023-03-09T14:13:20.375Z,98904.13
2023-03-09T14:18:49.480Z,99140.16
2023-03-09T14:23:43.532Z,99146.69
2023-03-09T14:28:42.640Z,99139.88
2023-03-09T14:33:34.977Z,98991.84
2023-03-09T14:38:26.734Z,99124.44
2023-03-09T14:43:45.761Z,99112.44
2023-03-09T14:48:37.415Z,99112.81
2023-03-09T14:53:29.074Z,99101.72
2023-03-09T14:58:22.683Z,99084.25
2023-03-09T15:03:15.414Z,98815.25
2023-03-09T15:08:07.132Z,98902.00
2023-03-09T15:12:59.744Z,98909.34
2023-03-09T15:17:53.493Z,99090.38
2023-03-09T15:22:46.952Z,99035.38
2023-03-09T15:27:39.113Z,98986.78
2023-03-09T15:32:32.001Z,99055.16
2023-03-09T15:37:23.771Z,98978.53
2023-03-09T15:42:15.466Z,98934.53
2023-03-09T15:47:08.063Z,99039.16
2023-03-09T15:52:00.526Z,99033.63
2023-03-09T15:56:52.215Z,99037.31
2023-03-09T16:01:45.980Z,98945.94
2023-03-09T16:06:37.988Z,99031.06
2023-03-09T16:11:32.987Z,98929.47
2023-03-09T16:16:24.682Z,99014.78
2023-03-09T16:21:16.446Z,99023.47
2023-03-09T16:26:10.657Z,99002.94
2023-03-09T16:31:04.296Z,98875.78
2023-03-09T16:35:58.224Z,98780.81
2023-03-09T16:40:49.923Z,98953.38
2023-03-09T16:46:01.298Z,98896.78
2023-03-09T16:51:01.943Z,98902.56
2023-03-09T16:56:12.003Z,98975.72
2023-03-09T17:01:11.750Z,98957.25
2023-03-09T17:06:03.656Z,98944.59
2023-03-09T17:10:55.432Z,98953.53
2023-03-09T17:15:47.166Z,98927.38
2023-03-09T17:20:38.840Z,98980.28
2023-03-09T17:25:32.744Z,98857.53
2023-03-09T17:30:33.081Z,98430.63
2023-03-09T17:35:28.768Z,98778.09
2023-03-09T17:40:20.618Z,98791.75
2023-03-09T17:45:13.477Z,98923.94
2023-03-09T17:50:06.380Z,98952.91
2023-03-09T17:54:58.464Z,98946.56
2023-03-09T17:59:50.090Z,98872.84
2023-03-09T18:04:47.174Z,98943.41
2023-03-09T18:09:39.710Z,98913.63
2023-03-09T18:14:31.387Z,98898.09
2023-03-09T18:19:23.081Z,98838.09
2023-03-09T18:24:14.969Z,98942.34
2023-03-09T18:29:06.860Z,98728.91
2023-03-09T18:33:59.362Z,98779.41
2023-03-09T18:38:52.442Z,98793.72
2023-03-09T18:43:46.549Z,98772.16
2023-03-09T18:48:38.460Z,98670.19
2023-03-09T18:53:31.811Z,98772.00
2023-03-09T18:58:24.422Z,98667.28
2023-03-09T19:03:16.385Z,98827.22
2023-03-09T19:08:08.757Z,98803.56
2023-03-09T19:13:01.487Z,98652.59
2023-03-09T19:17:54.342Z,98331.47
2023-03-09T19:22:46.393Z,98849.31
2023-03-09T19:27:38.607Z,98569.78
2023-03-09T19:32:30.915Z,98839.00
2023-03-09T19:37:24.217Z,98803.47
2023-03-09T19:42:16.751Z,98581.91
2023-03-09T19:47:08.390Z,98744.22
2023-03-09T19:52:00.554Z,98599.09
2023-03-09T19:56:53.087Z,98770.19
2023-03-09T20:01:50.548Z,98562.94
2023-03-09T20:06:45.642Z,98686.78
2023-03-09T20:11:39.572Z,98531.59
2023-03-09T20:16:34.981Z,98684.97
2023-03-09T20:21:28.261Z,98729.19
2023-03-09T20:26:31.916Z,98595.63
2023-03-09T20:31:26.867Z,98641.69
2023-03-09T20:36:18.871Z,98692.78
2023-03-09T20:41:13.940Z,98351.13
2023-03-09T20:46:07.674Z,98462.59
2023-03-09T20:50:59.965Z,98504.41
2023-03-09T20:55:53.354Z,98582.81
2023-03-09T21:00:45.061Z,98604.88
2023-03-09T21:05:38.045Z,98422.16
2023-03-09T21:10:30.870Z,98561.31
2023-03-09T21:15:23.971Z,98528.75
2023-03-09T21:20:16.021Z,98621.84
2023-03-09T21:25:11.715Z,98281.34
2023-03-09T21:30:04.461Z,98217.78
2023-03-09T21:35:00.169Z,98561.56
2023-03-09T21:39:54.848Z,98576.78
2023-03-09T21:44:46.914Z,98571.81
2023-03-09T21:49:38.598Z,98559.50
2023-03-09T21:54:32.334Z,98421.97
2023-03-09T21:59:24.110Z,98379.50
2023-03-09T22:04:16.867Z,98539.34
2023-03-09T22:09:08.581Z,98421.53
2023-03-09T22:14:01.446Z,98349.19
2023-03-09T22:18:54.088Z,98476.66
2023-03-09T22:23:46.580Z,98323.25
2023-03-09T22:28:38.613Z,98363.84
2023-03-09T22:33:35.705Z,98468.78
2023-03-09T22:38:28.092Z,98157.28
2023-03-09T22:43:20.585Z,98384.88
2023-03-09T22:48:12.303Z,98236.00
2023-03-09T22:53:04.728Z,98333.00
2023-03-09T22:57:56.398Z,98222.41
2023-03-09T23:02:49.601Z,98404.59
2023-03-09T23:07:41.602Z,98159.59
2023-03-09T23:12:34.165Z,98239.53
2023-03-09T23:17:25.921Z,98236.16
2023-03-09T23:22:18.579Z,98299.28
2023-03-09T23:27:10.220Z,98216.25
2023-03-09T23:32:02.366Z,98341.72
2023-03-09T23:36:54.927Z,98247.44
2023-03-09T23:41:46.673Z,98260.25
2023-03-09T23:46:38.834Z,98173.34
2023-03-09T23:51:33.092Z,98316.81
2023-03-09T23:56:24.791Z,98231.72
